createdAt,value
2018-09-17T00:00:58.424Z,80.43
2018-09-17T00:01:58.601Z,79.96
2018-09-17T00:02:58.781Z,80.05
2018-09-17T00:03:58.968Z,80.15
2018-09-17T00:04:59.143Z,80.15
2018-09-17T00:07:59.662Z,80.43
2018-09-17T00:08:59.849Z,80.62
2018-09-17T00:10:00.031Z,80.53
2018-09-17T00:11:00.205Z,80.43
2018-09-17T00:12:00.385Z,80.72
2018-09-17T00:13:00.565Z,80.72
2018-09-17T00:14:00.746Z,80.72
2018-09-17T00:15:00.923Z,80.72
2018-09-17T00:16:01.095Z,80.62
2018-09-17T00:17:01.271Z,80.43
2018-09-17T00:18:01.444Z,80.72
2018-09-17T00:19:01.668Z,80.91
2018-09-17T00:20:01.800Z,81.01
2018-09-17T00:21:01.985Z,80.72
2018-09-17T00:22:02.159Z,80.91
2018-09-17T00:23:02.337Z,80.43
2018-09-17T00:24:02.514Z,80.24
2018-09-17T00:25:02.691Z,79.86
2018-09-17T00:26:02.870Z,80.24
2018-09-17T00:27:03.036Z,80.33
2018-09-17T00:28:03.219Z,80.15
2018-09-17T00:29:03.398Z,80.15
2018-09-17T00:30:03.585Z,80.43
2018-09-17T00:31:03.748Z,80.87
2018-09-17T00:32:03.927Z,81.44
2018-09-17T00:33:04.105Z,82.01
2018-09-17T00:34:04.282Z,81.44
2018-09-17T00:35:04.459Z,81.82
2018-09-17T00:36:04.643Z,82.20
2018-09-17T00:37:05.398Z,81.77
2018-09-17T00:39:05.130Z,82.20
2018-09-17T00:40:05.313Z,81.63
2018-09-17T00:41:05.491Z,81.67
2018-09-17T00:42:05.669Z,81.38
2018-09-17T00:43:05.859Z,80.81
2018-09-17T00:44:06.020Z,80.81
2018-09-17T00:45:06.196Z,81.67
2018-09-17T00:46:06.375Z,81.73
2018-09-17T00:47:06.559Z,81.15
2018-09-17T00:48:06.737Z,81.35
2018-09-17T00:49:06.911Z,81.77
2018-09-17T00:50:07.083Z,80.91
2018-09-17T00:51:07.262Z,81.10
2018-09-17T00:52:07.440Z,81.20
2018-09-17T00:53:07.619Z,80.72
2018-09-17T00:54:07.796Z,80.62
2018-09-17T00:55:07.974Z,81.10
2018-09-17T00:56:08.150Z,81.54
2018-09-17T00:57:08.330Z,81.25
2018-09-17T00:58:08.507Z,81.29
2018-09-17T00:59:08.687Z,81.73
2018-09-17T01:00:08.866Z,82.01
2018-09-17T01:01:09.038Z,81.35
2018-09-17T01:02:09.218Z,81.54
2018-09-17T01:03:09.397Z,81.92
2018-09-17T01:04:09.582Z,81.82
2018-09-17T01:05:09.763Z,82.11
2018-09-17T01:06:09.943Z,81.82
2018-09-17T01:07:10.117Z,81.82
2018-09-17T01:08:10.288Z,81.44
2018-09-17T01:09:10.471Z,81.82
2018-09-17T01:10:10.665Z,81.73
2018-09-17T01:11:10.836Z,81.54
2018-09-17T01:12:11.010Z,82.11
2018-09-17T01:13:11.188Z,81.92
2018-09-17T01:14:11.372Z,81.54
2018-09-17T01:15:11.541Z,82.11
2018-09-17T01:16:11.718Z,81.54
2018-09-17T01:17:11.897Z,81.82
2018-09-17T01:18:12.077Z,81.82
2018-09-17T01:19:12.254Z,81.63
2018-09-17T01:20:12.432Z,81.92
2018-09-17T01:21:12.609Z,81.44
2018-09-17T01:22:12.786Z,82.01
2018-09-17T01:23:12.971Z,82.01
2018-09-17T01:24:13.146Z,82.30
2018-09-17T01:25:13.313Z,82.68
2018-09-17T01:26:13.495Z,82.78
2018-09-17T01:27:13.670Z,82.40
2018-09-17T01:28:13.851Z,83.31
2018-09-17T01:29:14.032Z,83.59
2018-09-17T01:30:14.201Z,83.78
2018-09-17T01:31:14.379Z,83.40
2018-09-17T01:32:14.566Z,83.31
2018-09-17T01:33:14.737Z,83.31
2018-09-17T01:34:14.907Z,83.69
2018-09-17T01:35:15.082Z,83.88
2018-09-17T01:36:15.257Z,84.16
2018-09-17T01:37:15.436Z,84.74
2018-09-17T01:38:15.614Z,84.55
2018-09-17T01:39:15.798Z,84.64
2018-09-17T01:40:15.977Z,84.55
2018-09-17T01:41:16.153Z,84.36
2018-09-17T01:42:16.335Z,84.45
2018-09-17T01:43:16.518Z,84.16
2018-09-17T01:44:16.699Z,84.36
2018-09-17T01:45:16.871Z,84.74
2018-09-17T01:46:17.102Z,84.55
2018-09-17T01:47:17.224Z,84.36
2018-09-17T01:48:17.405Z,83.88
2018-09-17T01:49:17.572Z,84.07
2018-09-17T01:50:17.754Z,84.26
2018-09-17T01:51:17.935Z,83.97
2018-09-17T01:52:18.106Z,83.78
2018-09-17T01:53:18.285Z,83.69
2018-09-17T01:54:18.464Z,83.50
2018-09-17T01:55:18.641Z,84.16
2018-09-17T01:56:18.818Z,84.26
2018-09-17T01:57:19.000Z,83.78
2018-09-17T01:58:19.173Z,83.78
2018-09-17T01:59:19.351Z,83.31
2018-09-17T02:00:19.534Z,83.59
2018-09-17T02:01:19.707Z,83.69
2018-09-17T02:02:19.884Z,83.88
2018-09-17T02:03:20.065Z,84.26
2018-09-17T02:04:20.244Z,84.88
2018-09-17T02:05:20.425Z,84.64
2018-09-17T02:06:20.615Z,84.36
2018-09-17T02:07:20.790Z,84.50
2018-09-17T02:08:20.966Z,84.64
2018-09-17T02:09:21.143Z,84.55
2018-09-17T02:10:21.332Z,84.74
2018-09-17T02:11:21.502Z,84.36
2018-09-17T02:12:21.681Z,84.45
2018-09-17T02:13:21.860Z,84.45
2018-09-17T02:14:22.036Z,84.45
2018-09-17T02:15:22.211Z,84.26
2018-09-17T02:16:22.381Z,84.74
2018-09-17T02:17:22.567Z,84.45
2018-09-17T02:18:22.749Z,84.83
2018-09-17T02:19:22.922Z,85.02
2018-09-17T02:20:23.102Z,85.02
2018-09-17T02:21:23.286Z,84.36
2018-09-17T02:22:23.459Z,84.74
2018-09-17T02:23:23.631Z,84.07
2018-09-17T02:24:23.810Z,83.97
2018-09-17T02:25:23.989Z,83.78
2018-09-17T02:26:24.172Z,84.26
2018-09-17T02:27:24.354Z,83.97
2018-09-17T02:28:24.522Z,84.22
2018-09-17T02:29:24.699Z,84.74
2018-09-17T02:30:24.879Z,84.50
2018-09-17T02:31:25.064Z,85.08
2018-09-17T02:32:25.226Z,85.46
2018-09-17T02:33:25.403Z,85.36
2018-09-17T02:34:25.581Z,86.03
2018-09-17T02:35:25.760Z,86.60
2018-09-17T02:36:25.942Z,86.88
2018-09-17T02:37:26.108Z,86.88
2018-09-17T02:38:26.292Z,86.79
2018-09-17T02:39:26.462Z,86.79
2018-09-17T02:40:26.644Z,86.98
2018-09-17T02:41:26.826Z,86.88
2018-09-17T02:42:27.008Z,86.98
2018-09-17T02:43:27.186Z,86.32
2018-09-17T02:44:27.363Z,86.69
2018-09-17T02:45:27.541Z,86.03
2018-09-17T02:46:27.709Z,86.12
2018-09-17T02:47:27.887Z,86.65
2018-09-17T02:48:28.065Z,87.03
2018-09-17T02:49:28.252Z,87.70
2018-09-17T02:50:28.417Z,88.08
2018-09-17T02:51:28.605Z,87.89
2018-09-17T02:52:28.786Z,88.08
2018-09-17T02:53:29.005Z,87.98
2018-09-17T02:54:29.139Z,87.98
2018-09-17T02:55:29.308Z,87.89
2018-09-17T02:56:29.495Z,88.27
2018-09-17T02:57:29.672Z,87.60
2018-09-17T02:58:29.852Z,87.89
2018-09-17T02:59:30.042Z,87.51
2018-09-17T03:00:30.206Z,87.98
2018-09-17T03:01:30.381Z,87.51
2018-09-17T03:02:30.562Z,87.70
2018-09-17T03:03:30.728Z,87.51
2018-09-17T03:04:30.907Z,87.79
2018-09-17T03:05:31.090Z,87.89
2018-09-17T03:06:31.280Z,87.70
2018-09-17T03:07:32.364Z,88.18
2018-09-17T03:08:31.624Z,87.89
2018-09-17T03:09:31.798Z,87.70
2018-09-17T03:10:31.967Z,87.98
2018-09-17T03:11:32.151Z,88.37
2018-09-17T03:12:32.320Z,88.37
2018-09-17T03:13:32.500Z,87.89
2018-09-17T03:14:32.669Z,87.98
2018-09-17T03:15:32.847Z,87.98
2018-09-17T03:16:33.022Z,87.98
2018-09-17T03:17:33.205Z,87.70
2018-09-17T03:18:33.390Z,87.13
2018-09-17T03:19:33.552Z,86.84
2018-09-17T03:20:33.727Z,87.23
2018-09-17T03:21:33.907Z,87.17
2018-09-17T03:22:34.084Z,87.65
2018-09-17T03:23:34.279Z,87.74
2018-09-17T03:24:34.462Z,87.55
2018-09-17T03:25:34.634Z,87.74
2018-09-17T03:26:34.812Z,87.74
2018-09-17T03:27:34.993Z,87.74
2018-09-17T03:28:35.178Z,88.03
2018-09-17T03:29:35.344Z,87.74
2018-09-17T03:30:35.521Z,87.46
2018-09-17T03:31:35.698Z,86.98
2018-09-17T03:32:35.880Z,86.98
2018-09-17T03:33:36.046Z,86.51
2018-09-17T03:34:36.232Z,86.65
2018-09-17T03:35:36.399Z,86.94
2018-09-17T03:36:36.589Z,87.89
2018-09-17T03:37:36.762Z,88.27
2018-09-17T03:38:36.943Z,87.41
2018-09-17T03:39:37.117Z,87.98
2018-09-17T03:40:37.291Z,87.60
2018-09-17T03:41:37.464Z,87.70
2018-09-17T03:42:37.638Z,87.70
2018-09-17T03:43:37.829Z,87.60
2018-09-17T03:44:37.982Z,87.70
2018-09-17T03:45:38.162Z,88.79
2018-09-17T03:46:38.425Z,88.65
2018-09-17T03:47:38.520Z,88.56
2018-09-17T03:48:38.683Z,88.46
2018-09-17T03:49:38.863Z,88.18
2018-09-17T03:50:39.045Z,87.70
2018-09-17T03:51:39.225Z,88.84
2018-09-17T03:52:39.400Z,88.56
2018-09-17T03:53:39.576Z,87.89
2018-09-17T03:54:39.754Z,87.89
2018-09-17T03:55:39.930Z,87.70
2018-09-17T03:56:40.113Z,87.23
2018-09-17T03:57:40.288Z,87.41
2018-09-17T03:58:40.472Z,87.41
2018-09-17T03:59:40.649Z,87.32
2018-09-17T04:00:40.827Z,87.23
2018-09-17T04:01:40.997Z,86.94
2018-09-17T04:02:41.176Z,87.51
2018-09-17T04:03:41.354Z,88.04
2018-09-17T04:04:41.529Z,88.99
2018-09-17T04:05:41.708Z,89.27
2018-09-17T04:06:41.884Z,89.27
2018-09-17T04:07:42.075Z,88.99
2018-09-17T04:08:42.238Z,88.89
2018-09-17T04:09:42.417Z,88.60
2018-09-17T04:10:42.607Z,88.51
2018-09-17T04:11:42.780Z,88.60
2018-09-17T04:12:42.957Z,88.60
2018-09-17T04:13:43.140Z,88.89
2018-09-17T04:14:43.315Z,88.60
2018-09-17T04:15:43.487Z,87.65
2018-09-17T04:16:43.674Z,88.04
2018-09-17T04:17:43.845Z,87.79
2018-09-17T04:18:44.023Z,87.98
2018-09-17T04:19:44.361Z,87.85
2018-09-17T04:20:44.403Z,87.94
2018-09-17T04:21:44.591Z,87.85
2018-09-17T04:22:44.779Z,87.65
2018-09-17T04:23:44.945Z,88.99
2018-09-17T04:24:45.122Z,88.32
2018-09-17T04:25:45.298Z,88.79
2018-09-17T04:26:45.479Z,88.99
2018-09-17T04:27:45.654Z,88.89
2018-09-17T04:28:45.830Z,89.37
2018-09-17T04:29:46.011Z,89.37
2018-09-17T04:30:46.184Z,89.56
2018-09-17T04:31:46.365Z,89.56
2018-09-17T04:32:46.541Z,90.03
2018-09-17T04:33:46.716Z,89.56
2018-09-17T04:34:46.904Z,89.79
2018-09-17T04:35:47.071Z,89.27
2018-09-17T04:36:47.255Z,88.79
2018-09-17T04:37:47.438Z,87.85
2018-09-17T04:38:47.601Z,87.94
2018-09-17T04:39:47.785Z,88.04
2018-09-17T04:40:47.945Z,88.04
2018-09-17T04:41:48.127Z,88.23
2018-09-17T04:42:48.317Z,87.85
2018-09-17T04:43:48.492Z,87.85
2018-09-17T04:44:48.673Z,88.13
2018-09-17T04:45:48.893Z,88.60
2018-09-17T04:46:49.028Z,88.13
2018-09-17T04:47:49.199Z,88.13
2018-09-17T04:48:49.379Z,87.94
2018-09-17T04:49:49.555Z,88.51
2018-09-17T04:50:49.735Z,88.79
2018-09-17T04:51:49.933Z,88.23
2018-09-17T04:52:50.107Z,88.70
2018-09-17T04:53:50.281Z,88.23
2018-09-17T04:54:50.442Z,88.60
2018-09-17T04:55:50.622Z,88.70
2018-09-17T04:56:50.796Z,88.42
2018-09-17T04:57:50.972Z,88.04
2018-09-17T04:58:51.149Z,88.13
2018-09-17T04:59:51.328Z,88.51
2018-09-17T05:00:51.505Z,88.70
2018-09-17T05:01:51.689Z,88.42
2018-09-17T05:02:51.871Z,88.51
2018-09-17T05:03:52.037Z,88.32
2018-09-17T05:04:52.219Z,88.51
2018-09-17T05:05:52.392Z,88.99
2018-09-17T05:06:52.569Z,89.08
2018-09-17T05:07:52.765Z,89.27
2018-09-17T05:08:52.927Z,89.32
2018-09-17T05:09:53.108Z,90.03
2018-09-17T05:10:53.285Z,89.89
2018-09-17T05:11:53.448Z,90.13
2018-09-17T05:12:53.648Z,90.13
2018-09-17T05:13:53.801Z,90.13
2018-09-17T05:14:54.008Z,90.03
2018-09-17T05:15:54.155Z,89.70
2018-09-17T05:16:54.323Z,90.47
2018-09-17T05:17:54.499Z,91.80
2018-09-17T05:19:54.867Z,91.70
2018-09-17T05:20:55.031Z,91.03
2018-09-17T05:21:55.212Z,91.22
2018-09-17T05:22:55.373Z,90.51
2018-09-17T05:23:55.557Z,90.56
2018-09-17T05:24:55.748Z,90.51
2018-09-17T05:25:55.895Z,90.03
2018-09-17T05:26:56.101Z,90.13
2018-09-17T05:27:56.235Z,89.94
2018-09-17T05:28:56.417Z,90.13
2018-09-17T05:29:56.592Z,89.94
2018-09-17T05:30:56.760Z,90.13
2018-09-17T05:31:56.942Z,90.03
2018-09-17T05:32:57.117Z,89.65
2018-09-17T05:33:57.292Z,89.84
2018-09-17T05:34:57.545Z,89.47
2018-09-17T05:35:57.638Z,89.08
2018-09-17T05:36:57.862Z,89.18
2018-09-17T05:37:58.042Z,89.18
2018-09-17T05:38:58.209Z,89.37
2018-09-17T05:39:58.385Z,89.56
2018-09-17T05:40:58.580Z,89.22
2018-09-17T05:41:58.747Z,89.32
2018-09-17T05:42:58.911Z,88.65
2018-09-17T05:43:59.085Z,88.37
2018-09-17T05:44:59.265Z,88.08
2018-09-17T05:45:59.447Z,88.18
2018-09-17T05:46:59.630Z,87.70
2018-09-17T05:47:59.811Z,87.32
2018-09-17T05:48:59.981Z,87.13
2018-09-17T05:50:00.177Z,86.94
2018-09-17T05:51:00.343Z,86.94
2018-09-17T05:54:32.806Z,85.93
2018-09-17T05:55:32.986Z,84.45
2018-09-17T05:56:33.185Z,83.16
2018-09-17T05:57:34.272Z,81.82
2018-09-17T05:58:33.525Z,79.96
2018-09-17T05:59:33.740Z,77.51
2018-09-17T06:00:33.891Z,76.31
2018-09-17T06:01:34.069Z,74.48
2018-09-17T06:02:34.247Z,71.89
2018-09-17T06:03:34.413Z,71.55
2018-09-17T06:04:34.592Z,69.54
2018-09-17T06:05:34.839Z,69.19
2018-09-17T06:06:34.951Z,68.46
2018-09-17T06:07:35.151Z,67.21
2018-09-17T06:08:35.313Z,66.35
2018-09-17T06:09:35.519Z,66.45
2018-09-17T06:10:35.679Z,65.97
2018-09-17T06:11:35.862Z,65.91
2018-09-17T06:12:36.041Z,65.05
2018-09-17T06:13:36.221Z,64.95
2018-09-17T06:14:36.481Z,65.01
2018-09-17T06:15:36.588Z,65.14
2018-09-17T06:16:36.770Z,64.95
2018-09-17T06:17:36.952Z,64.28
2018-09-17T06:18:37.133Z,64.47
2018-09-17T06:19:37.344Z,63.89
2018-09-17T06:20:37.503Z,63.99
2018-09-17T06:21:37.704Z,63.32
2018-09-17T06:22:37.889Z,63.60
2018-09-17T06:23:38.075Z,62.96
2018-09-17T06:24:38.252Z,64.28
2018-09-17T06:25:38.447Z,64.12
2018-09-17T06:26:38.792Z,63.16
2018-09-17T06:27:38.802Z,63.45
2018-09-17T06:28:39.023Z,62.52
2018-09-17T06:29:39.190Z,61.46
2018-09-17T06:30:39.379Z,61.27
2018-09-17T06:31:39.559Z,60.60
2018-09-17T06:32:39.746Z,60.70
2018-09-17T06:33:39.929Z,60.53
2018-09-17T06:34:40.105Z,59.67
2018-09-17T06:35:40.287Z,59.67
2018-09-17T06:36:40.479Z,59.32
2018-09-17T06:37:40.788Z,58.55
2018-09-17T06:38:40.864Z,58.26
2018-09-17T06:39:41.049Z,58.84
2018-09-17T06:40:41.226Z,58.48
2018-09-17T06:41:41.481Z,58.17
2018-09-17T06:42:41.592Z,57.71
2018-09-17T06:43:41.781Z,57.07
2018-09-17T06:44:41.971Z,56.43
2018-09-17T06:45:42.157Z,56.27
2018-09-17T06:46:42.355Z,58.26
2018-09-17T06:47:42.638Z,58.45
2018-09-17T06:48:42.712Z,57.62
2018-09-17T06:49:42.976Z,57.33
2018-09-17T06:50:43.094Z,56.95
2018-09-17T06:51:43.272Z,57.52
2018-09-17T06:52:43.454Z,56.88
2018-09-17T06:53:43.658Z,56.40
2018-09-17T06:54:43.840Z,56.85
2018-09-17T06:55:44.031Z,56.68
2018-09-17T06:56:44.207Z,56.62
2018-09-17T06:57:44.415Z,56.23
2018-09-17T06:58:44.595Z,56.59
2018-09-17T06:59:44.795Z,56.78
2018-09-17T07:02:45.375Z,56.11
2018-09-17T07:03:45.492Z,55.94
2018-09-17T07:04:45.676Z,56.23
2018-09-17T07:05:45.884Z,56.14
2018-09-17T07:06:46.039Z,55.66
2018-09-17T07:07:46.221Z,55.46
2018-09-17T07:08:46.415Z,55.56
2018-09-17T07:09:46.586Z,55.18
2018-09-17T07:10:46.772Z,56.23
2018-09-17T07:11:46.956Z,56.11
2018-09-17T07:12:47.133Z,56.49
2018-09-17T07:13:47.334Z,56.21
2018-09-17T07:14:47.517Z,56.95
2018-09-17T07:15:47.696Z,57.17
2018-09-17T07:16:47.903Z,57.07
2018-09-17T07:17:48.084Z,56.21
2018-09-17T07:18:48.276Z,56.21
2018-09-17T07:19:48.475Z,56.68
2018-09-17T07:20:48.655Z,57.71
2018-09-17T07:21:48.842Z,58.29
2018-09-17T07:22:49.032Z,58.39
2018-09-17T07:23:49.217Z,58.77
2018-09-17T07:24:49.408Z,58.39
2018-09-17T07:25:49.596Z,59.44
2018-09-17T07:26:49.775Z,59.22
2018-09-17T07:27:49.957Z,59.51
2018-09-17T07:28:50.132Z,59.80
2018-09-17T07:29:50.338Z,59.83
2018-09-17T07:30:50.536Z,59.64
2018-09-17T07:31:50.720Z,59.54
2018-09-17T07:32:50.906Z,59.16
2018-09-17T07:33:51.091Z,58.87
2018-09-17T07:34:51.290Z,58.39
2018-09-17T07:35:51.464Z,58.10
2018-09-17T07:36:51.635Z,58.87
2018-09-17T07:37:51.842Z,59.44
2018-09-17T07:38:52.011Z,59.54
2018-09-17T07:39:52.215Z,59.34
2018-09-17T07:40:52.405Z,59.54
2018-09-17T07:41:52.584Z,58.22
2018-09-17T07:42:52.778Z,58.13
2018-09-17T07:43:52.950Z,58.03
2018-09-17T07:44:53.121Z,57.39
2018-09-17T07:45:53.327Z,58.13
2018-09-17T07:46:53.502Z,57.75
2018-09-17T07:47:53.736Z,58.80
2018-09-17T07:48:53.863Z,58.61
2018-09-17T07:49:54.045Z,58.03
2018-09-17T07:50:54.231Z,57.87
2018-09-17T07:51:54.409Z,57.93
2018-09-17T07:52:54.658Z,58.15
2018-09-17T07:53:54.801Z,57.29
2018-09-17T07:54:54.984Z,57.10
2018-09-17T07:55:55.163Z,56.81
2018-09-17T07:56:55.348Z,56.65
2018-09-17T07:57:55.525Z,56.26
2018-09-17T07:58:55.743Z,55.59
2018-09-17T07:59:55.904Z,55.49
2018-09-17T08:00:56.074Z,55.04
2018-09-17T08:01:56.265Z,55.33
2018-09-17T08:02:56.445Z,54.65
2018-09-17T08:03:56.627Z,54.17
2018-09-17T08:04:56.824Z,53.88
2018-09-17T08:05:57.035Z,54.08
2018-09-17T08:06:57.220Z,54.30
2018-09-17T08:07:57.404Z,54.20
2018-09-17T08:08:57.601Z,53.23
2018-09-17T08:09:57.790Z,53.17
2018-09-17T08:10:57.969Z,52.69
2018-09-17T08:11:58.145Z,52.69
2018-09-17T08:12:58.324Z,52.81
2018-09-17T08:13:58.512Z,53.17
2018-09-17T08:14:58.695Z,52.78
2018-09-17T08:15:58.890Z,52.23
2018-09-17T08:16:59.072Z,52.04
2018-09-17T08:17:59.247Z,52.42
2018-09-17T08:18:59.452Z,52.42
2018-09-17T08:19:59.664Z,52.23
2018-09-17T08:20:59.807Z,51.75
2018-09-17T08:21:59.995Z,52.06
2018-09-17T08:23:00.191Z,51.29
2018-09-17T08:24:00.374Z,51.39
2018-09-17T08:25:00.567Z,51.20
2018-09-17T08:26:00.762Z,51.65
2018-09-17T08:27:00.933Z,52.25
2018-09-17T08:28:01.128Z,51.84
2018-09-17T08:29:01.324Z,51.75
2018-09-17T08:30:01.507Z,52.06
2018-09-17T08:31:01.681Z,52.16
2018-09-17T08:32:01.870Z,51.75
2018-09-17T08:33:02.067Z,51.65
2018-09-17T08:34:02.261Z,50.90
2018-09-17T08:35:02.445Z,50.16
2018-09-17T08:36:02.642Z,50.54
2018-09-17T08:37:02.815Z,49.70
2018-09-17T08:38:03.035Z,49.68
2018-09-17T08:39:03.177Z,49.32
2018-09-17T08:40:03.365Z,49.12
2018-09-17T08:41:03.553Z,49.70
2018-09-17T08:42:03.761Z,49.24
2018-09-17T08:43:03.943Z,47.99
2018-09-17T08:44:04.128Z,48.03
2018-09-17T08:45:04.332Z,46.51
2018-09-17T08:46:04.513Z,46.22
2018-09-17T08:47:04.715Z,45.28
2018-09-17T08:48:04.902Z,45.35
2018-09-17T08:49:05.087Z,45.54
2018-09-17T08:50:05.265Z,45.64
2018-09-17T08:51:05.452Z,45.95
2018-09-17T08:52:05.699Z,45.35
2018-09-17T08:53:05.883Z,45.54
2018-09-17T08:54:06.035Z,45.93
2018-09-17T08:55:06.211Z,45.45
2018-09-17T08:56:06.399Z,45.64
2018-09-17T08:57:06.596Z,45.83
2018-09-17T08:58:06.824Z,46.70
2018-09-17T08:59:06.993Z,45.83
2018-09-17T09:00:07.167Z,46.47
2018-09-17T09:01:07.359Z,47.05
2018-09-17T09:02:07.558Z,46.49
2018-09-17T09:03:07.745Z,47.89
2018-09-17T09:04:07.903Z,47.14
2018-09-17T09:05:08.170Z,46.39
2018-09-17T09:06:08.306Z,46.61
2018-09-17T09:07:08.496Z,45.18
2018-09-17T09:08:08.685Z,45.64
2018-09-17T09:09:08.860Z,45.35
2018-09-17T09:10:09.042Z,45.08
2018-09-17T09:11:09.233Z,43.85
2018-09-17T09:12:09.424Z,42.82
2018-09-17T09:13:09.600Z,42.54
2018-09-17T09:14:09.784Z,42.14
2018-09-17T09:15:09.973Z,43.27
2018-09-17T09:16:10.166Z,43.29
2018-09-17T09:17:10.342Z,42.54
2018-09-17T09:18:10.532Z,43.38
2018-09-17T09:19:10.717Z,43.90
2018-09-17T09:20:10.903Z,46.56
2018-09-17T09:21:11.088Z,47.80
2018-09-17T09:22:11.272Z,47.05
2018-09-17T09:23:11.475Z,46.88
2018-09-17T09:24:11.659Z,46.70
2018-09-17T09:25:11.847Z,45.40
2018-09-17T09:26:12.063Z,45.37
2018-09-17T09:29:45.547Z,46.25
2018-09-17T09:30:45.764Z,45.42
2018-09-17T09:31:45.921Z,43.60
2018-09-17T09:32:46.114Z,43.95
2018-09-17T09:33:46.289Z,43.70
2018-09-17T09:34:46.488Z,42.46
2018-09-17T09:35:46.698Z,40.92
2018-09-17T09:36:46.880Z,40.48
2018-09-17T09:37:47.065Z,40.50
2018-09-17T09:38:47.247Z,39.90
2018-09-17T09:39:47.437Z,40.01
2018-09-17T09:40:47.615Z,38.79
2018-09-17T09:41:47.807Z,37.84
2018-09-17T09:42:47.990Z,37.84
2018-09-17T09:43:48.176Z,37.45
2018-09-17T09:44:48.365Z,37.95
2018-09-17T09:45:48.550Z,37.27
2018-09-17T09:46:48.735Z,37.27
2018-09-17T09:47:48.935Z,37.74
2018-09-17T09:48:49.111Z,36.98
2018-09-17T09:49:49.300Z,36.80
2018-09-17T09:50:51.551Z,36.61
2018-09-17T09:51:49.752Z,38.83
2018-09-17T09:52:49.969Z,39.36
2018-09-17T09:53:50.185Z,39.72
2018-09-17T09:54:50.311Z,40.36
2018-09-17T09:55:50.500Z,39.72
2018-09-17T09:56:50.688Z,38.98
2018-09-17T09:57:50.876Z,38.23
2018-09-17T09:58:51.068Z,37.62
2018-09-17T09:59:51.268Z,37.72
2018-09-17T10:00:51.454Z,37.37
2018-09-17T10:01:51.642Z,36.69
2018-09-17T10:02:51.830Z,36.12
2018-09-17T10:03:52.025Z,35.38
2018-09-17T10:04:52.209Z,34.59
2018-09-17T10:05:52.396Z,34.59
2018-09-17T10:06:52.582Z,33.95
2018-09-17T10:07:52.782Z,33.95
2018-09-17T10:08:52.968Z,33.97
2018-09-17T10:10:53.336Z,32.50
2018-09-17T10:11:53.527Z,32.39
2018-09-17T10:12:53.724Z,32.40
2018-09-17T10:13:53.898Z,32.78
2018-09-17T10:14:54.097Z,32.62
2018-09-17T10:15:54.272Z,31.75
2018-09-17T10:16:54.475Z,32.21
2018-09-17T10:17:54.695Z,32.24
2018-09-17T10:18:54.857Z,32.04
2018-09-17T10:19:55.038Z,31.48
2018-09-17T10:20:55.211Z,31.67
2018-09-17T10:21:55.526Z,30.90
2018-09-17T10:22:55.660Z,30.90
2018-09-17T10:23:55.863Z,31.18
2018-09-17T10:24:55.986Z,30.86
2018-09-17T10:25:56.166Z,31.56
2018-09-17T10:26:56.340Z,30.98
2018-09-17T10:27:56.539Z,31.00
2018-09-17T10:28:56.709Z,30.52
2018-09-17T10:29:56.907Z,30.62
2018-09-17T10:30:57.091Z,30.52
2018-09-17T10:31:57.285Z,30.62
2018-09-17T10:32:57.465Z,30.23
2018-09-17T10:33:57.638Z,30.52
2018-09-17T10:34:57.829Z,30.80
2018-09-17T10:35:58.018Z,30.77
2018-09-17T10:36:58.169Z,34.69
2018-09-17T10:37:58.353Z,34.14
2018-09-17T10:38:58.528Z,33.65
2018-09-17T10:39:58.720Z,33.72
2018-09-17T10:40:58.884Z,34.11
2018-09-17T10:41:59.058Z,36.67
2018-09-17T10:42:59.237Z,36.32
2018-09-17T10:43:59.417Z,38.73
2018-09-17T10:44:59.599Z,38.77
2018-09-17T10:45:59.781Z,38.39
2018-09-17T10:47:00.028Z,39.70
2018-09-17T10:48:00.143Z,38.89
2018-09-17T10:49:00.319Z,37.27
2018-09-17T10:50:00.498Z,36.24
2018-09-17T10:51:00.684Z,34.99
2018-09-17T10:52:00.870Z,34.89
2018-09-17T10:53:01.071Z,34.22
2018-09-17T10:54:01.239Z,34.59
2018-09-17T10:55:01.433Z,34.69
2018-09-17T10:56:01.640Z,35.25
2018-09-17T10:57:01.867Z,34.95
2018-09-17T10:58:02.076Z,34.11
2018-09-17T10:59:02.238Z,33.75
2018-09-17T11:00:02.438Z,32.71
2018-09-17T11:01:02.648Z,31.65
2018-09-17T11:02:02.818Z,30.69
2018-09-17T11:03:02.995Z,30.77
2018-09-17T11:04:03.182Z,31.18
2018-09-17T11:05:03.372Z,30.59
2018-09-17T11:06:03.544Z,29.71
2018-09-17T11:07:03.732Z,30.08
2018-09-17T11:08:03.918Z,31.04
2018-09-17T11:09:04.071Z,31.70
2018-09-17T11:10:04.253Z,32.06
2018-09-17T11:11:04.427Z,33.43
2018-09-17T11:12:04.608Z,33.23
2018-09-17T11:13:04.792Z,33.53
2018-09-17T11:14:04.975Z,33.61
2018-09-17T11:15:05.164Z,34.68
2018-09-17T11:16:05.330Z,35.05
2018-09-17T11:17:05.489Z,34.58
2018-09-17T11:18:05.674Z,34.78
2018-09-17T11:19:05.862Z,34.68
2018-09-17T11:20:06.023Z,34.58
2018-09-17T11:21:06.206Z,34.95
2018-09-17T11:22:06.394Z,35.05
2018-09-17T11:23:06.577Z,35.05
2018-09-17T11:24:06.756Z,34.86
2018-09-17T11:25:06.943Z,34.56
2018-09-17T11:26:07.127Z,34.86
2018-09-17T11:27:07.315Z,35.15
2018-09-17T11:28:07.496Z,35.15
2018-09-17T11:29:07.662Z,35.25
2018-09-17T11:30:07.845Z,35.05
2018-09-17T11:31:08.016Z,35.15
2018-09-17T11:32:08.210Z,34.76
2018-09-17T11:33:08.366Z,34.95
2018-09-17T11:34:08.541Z,35.80
2018-09-17T11:35:08.724Z,35.70
2018-09-17T11:36:08.949Z,35.80
2018-09-17T11:37:09.111Z,35.50
2018-09-17T11:38:09.288Z,36.44
2018-09-17T11:39:09.483Z,36.07
2018-09-17T11:40:09.657Z,36.07
2018-09-17T11:41:09.873Z,35.78
2018-09-17T11:42:09.966Z,35.70
2018-09-17T11:43:10.144Z,36.16
2018-09-17T11:44:10.348Z,36.46
2018-09-17T11:45:10.534Z,35.99
2018-09-17T11:46:10.717Z,35.11
2018-09-17T11:47:10.878Z,34.92
2018-09-17T11:48:11.091Z,35.31
2018-09-17T11:49:11.252Z,35.70
2018-09-17T11:50:11.487Z,35.11
2018-09-17T11:51:11.612Z,34.64
2018-09-17T11:52:11.786Z,34.52
2018-09-17T11:53:11.976Z,34.53
2018-09-17T11:54:12.134Z,33.85
2018-09-17T11:55:12.336Z,34.16
2018-09-17T11:56:12.519Z,34.82
2018-09-17T11:57:12.691Z,35.23
2018-09-17T11:58:12.865Z,35.03
2018-09-17T11:59:13.043Z,34.84
2018-09-17T12:00:13.224Z,34.84
2018-09-17T12:01:13.420Z,34.74
2018-09-17T12:02:13.667Z,35.21
2018-09-17T12:03:13.791Z,35.23
2018-09-17T12:04:13.980Z,35.02
2018-09-17T12:05:14.178Z,35.80
2018-09-17T12:06:14.314Z,35.68
2018-09-17T12:07:14.538Z,36.26
2018-09-17T12:08:14.710Z,36.16
2018-09-17T12:09:14.942Z,36.08
2018-09-17T12:10:15.085Z,35.89
2018-09-17T12:11:15.415Z,35.70
2018-09-17T12:12:15.489Z,35.91
2018-09-17T12:13:15.658Z,36.07
2018-09-17T12:15:16.028Z,36.36
2018-09-17T12:16:16.187Z,36.18
2018-09-17T12:17:16.371Z,35.60
2018-09-17T12:18:16.537Z,35.70
2018-09-17T12:19:16.721Z,35.60
2018-09-17T12:20:16.885Z,35.89
2018-09-17T12:21:17.071Z,35.91
2018-09-17T12:22:17.275Z,35.23
2018-09-17T12:23:17.462Z,35.03
2018-09-17T12:24:17.660Z,35.23
2018-09-17T12:25:17.783Z,35.33
2018-09-17T12:26:17.966Z,35.25
2018-09-17T12:27:18.158Z,35.15
2018-09-17T12:28:18.334Z,35.15
2018-09-17T12:29:18.531Z,34.86
2018-09-17T12:30:18.700Z,34.95
2018-09-17T12:31:18.891Z,34.56
2018-09-17T12:32:19.043Z,34.66
2018-09-17T12:33:19.212Z,33.90
2018-09-17T12:34:19.390Z,33.41
2018-09-17T12:35:19.563Z,34.66
2018-09-17T12:36:19.754Z,34.84
2018-09-17T12:37:19.934Z,34.92
2018-09-17T12:38:20.126Z,35.60
2018-09-17T12:39:20.331Z,35.80
2018-09-17T12:40:20.516Z,35.80
2018-09-17T12:41:20.684Z,35.78
2018-09-17T12:42:20.847Z,35.49
2018-09-17T12:43:21.046Z,35.70
2018-09-17T12:44:21.210Z,35.41
2018-09-17T12:45:21.399Z,35.21
2018-09-17T12:46:21.585Z,35.21
2018-09-17T12:47:21.775Z,35.21
2018-09-17T12:48:21.958Z,34.94
2018-09-17T12:49:22.143Z,34.45
2018-09-17T12:50:22.330Z,33.67
2018-09-17T12:51:22.505Z,33.75
2018-09-17T12:52:22.687Z,34.43
2018-09-17T12:53:22.875Z,34.43
2018-09-17T12:54:23.060Z,35.02
2018-09-17T12:55:23.252Z,35.39
2018-09-17T12:56:23.430Z,35.31
2018-09-17T12:57:23.693Z,35.11
2018-09-17T12:58:23.797Z,35.21
2018-09-17T12:59:23.973Z,34.72
2018-09-17T13:00:24.154Z,35.10
2018-09-17T13:01:24.354Z,35.00
2018-09-17T13:02:24.516Z,34.63
2018-09-17T13:03:24.759Z,33.95
2018-09-17T13:04:24.875Z,33.65
2018-09-17T13:05:25.030Z,33.77
2018-09-17T13:06:25.196Z,33.65
2018-09-17T13:07:25.377Z,33.56
2018-09-17T13:08:25.563Z,33.56